sensor_id;sensor_type;location;lat;lon;timestamp;P1;durP1;ratioP1;P2;durP2;ratioP2
19095;SDS011;9680;52.520;13.332;2023-09-19T00:00:31;2.75;;;1.75;;
19095;SDS011;9680;52.520;13.332;2023-09-19T00:02:59;4.53;;;1.80;;
19095;SDS011;9680;52.520;13.332;2023-09-19T00:05:27;6.70;;;1.70;;
19095;SDS011;9680;52.520;13.332;2023-09-19T00:07:55;7.28;;;2.30;;
19095;SDS011;9680;52.520;13.332;2023-09-19T00:10:24;7.30;;;2.10;;
19095;SDS011;9680;52.520;13.332;2023-09-19T00:12:52;3.60;;;1.60;;
19095;SDS011;9680;52.520;13.332;2023-09-19T00:15:21;6.53;;;1.88;;
19095;SDS011;9680;52.520;13.332;2023-09-19T00:17:48;3.42;;;1.80;;
19095;SDS011;9680;52.520;13.332;2023-09-19T00:20:17;7.35;;;1.80;;
19095;SDS011;9680;52.520;13.332;2023-09-19T00:22:46;4.28;;;2.10;;
19095;SDS011;9680;52.520;13.332;2023-09-19T00:25:13;5.40;;;1.73;;
19095;SDS011;9680;52.520;13.332;2023-09-19T00:27:40;6.10;;;1.90;;
19095;SDS011;9680;52.520;13.332;2023-09-19T00:30:08;2.97;;;1.90;;
19095;SDS011;9680;52.520;13.332;2023-09-19T00:32:40;8.27;;;2.08;;
19095;SDS011;9680;52.520;13.332;2023-09-19T00:35:07;7.32;;;1.77;;
19095;SDS011;9680;52.520;13.332;2023-09-19T00:37:35;5.85;;;1.75;;
19095;SDS011;9680;52.520;13.332;2023-09-19T00:40:03;3.42;;;1.83;;
19095;SDS011;9680;52.520;13.332;2023-09-19T00:42:31;6.40;;;1.85;;
19095;SDS011;9680;52.520;13.332;2023-09-19T00:44:59;3.53;;;1.73;;
19095;SDS011;9680;52.520;13.332;2023-09-19T00:47:29;2.92;;;1.70;;
19095;SDS011;9680;52.520;13.332;2023-09-19T00:49:56;3.63;;;1.80;;
19095;SDS011;9680;52.520;13.332;2023-09-19T00:52:23;5.85;;;1.90;;
19095;SDS011;9680;52.520;13.332;2023-09-19T00:54:51;4.82;;;1.85;;
19095;SDS011;9680;52.520;13.332;2023-09-19T00:57:19;4.43;;;1.70;;
19095;SDS011;9680;52.520;13.332;2023-09-19T00:59:48;4.85;;;1.75;;
19095;SDS011;9680;52.520;13.332;2023-09-19T01:02:18;4.63;;;1.65;;
19095;SDS011;9680;52.520;13.332;2023-09-19T01:04:46;2.60;;;1.50;;
19095;SDS011;9680;52.520;13.332;2023-09-19T01:07:13;3.70;;;1.65;;
19095;SDS011;9680;52.520;13.332;2023-09-19T01:09:41;5.85;;;1.75;;
19095;SDS011;9680;52.520;13.332;2023-09-19T01:12:09;4.70;;;1.88;;
19095;SDS011;9680;52.520;13.332;2023-09-19T01:14:41;3.10;;;1.60;;
19095;SDS011;9680;52.520;13.332;2023-09-19T01:17:14;3.10;;;1.67;;
19095;SDS011;9680;52.520;13.332;2023-09-19T01:20:03;6.32;;;1.73;;
19095;SDS011;9680;52.520;13.332;2023-09-19T01:22:56;6.18;;;2.03;;
19095;SDS011;9680;52.520;13.332;2023-09-19T01:31:40;4.00;;;1.83;;
19095;SDS011;9680;52.520;13.332;2023-09-19T01:34:09;3.42;;;1.85;;
19095;SDS011;9680;52.520;13.332;2023-09-19T01:36:37;7.80;;;1.70;;
19095;SDS011;9680;52.520;13.332;2023-09-19T01:39:04;3.63;;;1.83;;
19095;SDS011;9680;52.520;13.332;2023-09-19T01:44:25;2.95;;;1.58;;
19095;SDS011;9680;52.520;13.332;2023-09-19T01:47:03;6.50;;;2.00;;
19095;SDS011;9680;52.520;13.332;2023-09-19T01:49:40;9.30;;;1.70;;
19095;SDS011;9680;52.520;13.332;2023-09-19T01:52:12;3.15;;;1.75;;
19095;SDS011;9680;52.520;13.332;2023-09-19T01:54:41;2.90;;;1.80;;
19095;SDS011;9680;52.520;13.332;2023-09-19T01:57:16;4.25;;;1.90;;
19095;SDS011;9680;52.520;13.332;2023-09-19T01:59:50;7.78;;;1.90;;
19095;SDS011;9680;52.520;13.332;2023-09-19T02:02:23;4.57;;;2.00;;
19095;SDS011;9680;52.520;13.332;2023-09-19T02:04:51;4.95;;;1.90;;
19095;SDS011;9680;52.520;13.332;2023-09-19T02:07:18;4.93;;;1.60;;
19095;SDS011;9680;52.520;13.332;2023-09-19T02:09:46;3.60;;;1.83;;
19095;SDS011;9680;52.520;13.332;2023-09-19T02:12:13;5.60;;;1.80;;
19095;SDS011;9680;52.520;13.332;2023-09-19T02:14:40;4.82;;;1.85;;
19095;SDS011;9680;52.520;13.332;2023-09-19T02:17:07;4.00;;;1.85;;
19095;SDS011;9680;52.520;13.332;2023-09-19T02:19:37;3.20;;;2.00;;
19095;SDS011;9680;52.520;13.332;2023-09-19T02:22:06;6.70;;;1.80;;
19095;SDS011;9680;52.520;13.332;2023-09-19T02:24:35;3.70;;;1.67;;
19095;SDS011;9680;52.520;13.332;2023-09-19T02:27:03;4.50;;;1.88;;
19095;SDS011;9680;52.520;13.332;2023-09-19T02:29:30;4.35;;;2.00;;
19095;SDS011;9680;52.520;13.332;2023-09-19T02:31:59;4.72;;;2.00;;
19095;SDS011;9680;52.520;13.332;2023-09-19T02:34:26;4.10;;;1.63;;
19095;SDS011;9680;52.520;13.332;2023-09-19T02:36:55;3.20;;;1.63;;
19095;SDS011;9680;52.520;13.332;2023-09-19T02:39:22;2.75;;;1.60;;
19095;SDS011;9680;52.520;13.332;2023-09-19T02:41:49;5.93;;;2.20;;
19095;SDS011;9680;52.520;13.332;2023-09-19T02:44:16;2.97;;;1.67;;
19095;SDS011;9680;52.520;13.332;2023-09-19T02:46:45;4.80;;;1.90;;
19095;SDS011;9680;52.520;13.332;2023-09-19T02:49:13;5.65;;;2.20;;
19095;SDS011;9680;52.520;13.332;2023-09-19T02:51:42;5.07;;;1.85;;
19095;SDS011;9680;52.520;13.332;2023-09-19T02:54:10;3.95;;;1.80;;
19095;SDS011;9680;52.520;13.332;2023-09-19T02:56:37;9.10;;;1.80;;
19095;SDS011;9680;52.520;13.332;2023-09-19T02:59:04;7.50;;;2.03;;
19095;SDS011;9680;52.520;13.332;2023-09-19T03:01:31;3.15;;;1.92;;
19095;SDS011;9680;52.520;13.332;2023-09-19T03:03:58;3.25;;;1.73;;
19095;SDS011;9680;52.520;13.332;2023-09-19T03:06:25;2.75;;;1.77;;
19095;SDS011;9680;52.520;13.332;2023-09-19T03:08:52;3.42;;;1.65;;
19095;SDS011;9680;52.520;13.332;2023-09-19T03:11:23;6.13;;;1.80;;
19095;SDS011;9680;52.520;13.332;2023-09-19T03:13:54;4.70;;;1.55;;
19095;SDS011;9680;52.520;13.332;2023-09-19T03:16:22;4.22;;;1.42;;
19095;SDS011;9680;52.520;13.332;2023-09-19T03:18:54;6.20;;;1.70;;
19095;SDS011;9680;52.520;13.332;2023-09-19T03:21:23;4.75;;;1.45;;
19095;SDS011;9680;52.520;13.332;2023-09-19T03:23:51;5.20;;;1.40;;
19095;SDS011;9680;52.520;13.332;2023-09-19T03:26:18;3.35;;;1.33;;
19095;SDS011;9680;52.520;13.332;2023-09-19T03:28:48;2.17;;;1.52;;
19095;SDS011;9680;52.520;13.332;2023-09-19T03:31:14;2.30;;;1.17;;
19095;SDS011;9680;52.520;13.332;2023-09-19T03:33:41;2.45;;;1.40;;
19095;SDS011;9680;52.520;13.332;2023-09-19T03:36:08;3.47;;;1.50;;
19095;SDS011;9680;52.520;13.332;2023-09-19T03:38:35;2.88;;;1.50;;
19095;SDS011;9680;52.520;13.332;2023-09-19T03:41:02;4.60;;;1.30;;
19095;SDS011;9680;52.520;13.332;2023-09-19T03:43:29;2.97;;;1.30;;
19095;SDS011;9680;52.520;13.332;2023-09-19T03:46:02;2.85;;;1.10;;
19095;SDS011;9680;52.520;13.332;2023-09-19T03:48:30;6.60;;;1.55;;
19095;SDS011;9680;52.520;13.332;2023-09-19T03:50:58;2.55;;;1.20;;
19095;SDS011;9680;52.520;13.332;2023-09-19T03:53:25;2.47;;;1.13;;
19095;SDS011;9680;52.520;13.332;2023-09-19T03:55:52;2.55;;;1.08;;
19095;SDS011;9680;52.520;13.332;2023-09-19T03:58:19;3.83;;;1.58;;
19095;SDS011;9680;52.520;13.332;2023-09-19T04:00:46;4.35;;;1.30;;
19095;SDS011;9680;52.520;13.332;2023-09-19T04:03:14;3.03;;;1.20;;
19095;SDS011;9680;52.520;13.332;2023-09-19T04:05:46;3.15;;;1.35;;
19095;SDS011;9680;52.520;13.332;2023-09-19T04:08:13;2.00;;;1.20;;
19095;SDS011;9680;52.520;13.332;2023-09-19T04:10:41;3.60;;;1.30;;
19095;SDS011;9680;52.520;13.332;2023-09-19T04:13:08;2.20;;;1.33;;
19095;SDS011;9680;52.520;13.332;2023-09-19T04:15:36;1.88;;;1.20;;
19095;SDS011;9680;52.520;13.332;2023-09-19T04:18:03;3.80;;;1.40;;
19095;SDS011;9680;52.520;13.332;2023-09-19T04:20:32;2.97;;;1.38;;
19095;SDS011;9680;52.520;13.332;2023-09-19T04:22:59;3.20;;;1.30;;
19095;SDS011;9680;52.520;13.332;2023-09-19T04:25:26;2.17;;;1.48;;
19095;SDS011;9680;52.520;13.332;2023-09-19T04:27:54;2.17;;;1.35;;
19095;SDS011;9680;52.520;13.332;2023-09-19T04:30:21;2.00;;;1.30;;
19095;SDS011;9680;52.520;13.332;2023-09-19T04:32:48;1.95;;;1.40;;
19095;SDS011;9680;52.520;13.332;2023-09-19T04:35:16;3.90;;;1.55;;
19095;SDS011;9680;52.520;13.332;2023-09-19T04:37:44;4.03;;;1.65;;
19095;SDS011;9680;52.520;13.332;2023-09-19T04:40:11;3.17;;;1.60;;
19095;SDS011;9680;52.520;13.332;2023-09-19T04:42:42;1.85;;;1.40;;
19095;SDS011;9680;52.520;13.332;2023-09-19T04:45:09;3.85;;;1.40;;
19095;SDS011;9680;52.520;13.332;2023-09-19T04:47:36;2.53;;;1.25;;
19095;SDS011;9680;52.520;13.332;2023-09-19T04:50:08;5.63;;;1.40;;
19095;SDS011;9680;52.520;13.332;2023-09-19T04:52:39;3.40;;;1.40;;
19095;SDS011;9680;52.520;13.332;2023-09-19T04:55:10;1.90;;;1.38;;
19095;SDS011;9680;52.520;13.332;2023-09-19T04:57:42;3.28;;;1.38;;
19095;SDS011;9680;52.520;13.332;2023-09-19T05:00:11;2.00;;;1.40;;
19095;SDS011;9680;52.520;13.332;2023-09-19T05:02:39;2.88;;;1.35;;
19095;SDS011;9680;52.520;13.332;2023-09-19T05:05:06;2.72;;;1.48;;
19095;SDS011;9680;52.520;13.332;2023-09-19T05:07:34;2.58;;;1.40;;
19095;SDS011;9680;52.520;13.332;2023-09-19T05:10:01;4.03;;;1.40;;
19095;SDS011;9680;52.520;13.332;2023-09-19T05:12:32;3.38;;;1.48;;
19095;SDS011;9680;52.520;13.332;2023-09-19T05:15:00;3.35;;;1.30;;
19095;SDS011;9680;52.520;13.332;2023-09-19T05:17:28;5.25;;;1.33;;
19095;SDS011;9680;52.520;13.332;2023-09-19T05:19:54;2.30;;;1.40;;
19095;SDS011;9680;52.520;13.332;2023-09-19T05:22:21;3.28;;;1.40;;
19095;SDS011;9680;52.520;13.332;2023-09-19T05:24:49;4.38;;;1.35;;
19095;SDS011;9680;52.520;13.332;2023-09-19T05:27:18;3.33;;;1.80;;
19095;SDS011;9680;52.520;13.332;2023-09-19T05:29:47;2.55;;;1.67;;
19095;SDS011;9680;52.520;13.332;2023-09-19T05:32:16;6.70;;;1.60;;
19095;SDS011;9680;52.520;13.332;2023-09-19T05:34:44;2.60;;;1.42;;
19095;SDS011;9680;52.520;13.332;2023-09-19T05:37:12;5.03;;;1.45;;
19095;SDS011;9680;52.520;13.332;2023-09-19T05:39:41;3.65;;;1.70;;
19095;SDS011;9680;52.520;13.332;2023-09-19T05:42:08;4.38;;;1.50;;
19095;SDS011;9680;52.520;13.332;2023-09-19T05:44:35;3.83;;;1.48;;
19095;SDS011;9680;52.520;13.332;2023-09-19T05:47:03;2.30;;;1.65;;
19095;SDS011;9680;52.520;13.332;2023-09-19T05:49:31;3.35;;;1.73;;
19095;SDS011;9680;52.520;13.332;2023-09-19T05:51:58;2.22;;;1.50;;
19095;SDS011;9680;52.520;13.332;2023-09-19T05:54:26;3.85;;;1.55;;
19095;SDS011;9680;52.520;13.332;2023-09-19T05:56:53;3.50;;;1.50;;
19095;SDS011;9680;52.520;13.332;2023-09-19T05:59:20;7.68;;;1.60;;
19095;SDS011;9680;52.520;13.332;2023-09-19T06:01:47;3.50;;;1.42;;
19095;SDS011;9680;52.520;13.332;2023-09-19T06:04:16;3.75;;;1.60;;
19095;SDS011;9680;52.520;13.332;2023-09-19T06:06:44;5.00;;;1.52;;
19095;SDS011;9680;52.520;13.332;2023-09-19T06:09:12;7.70;;;1.50;;
19095;SDS011;9680;52.520;13.332;2023-09-19T06:11:40;5.30;;;1.80;;
19095;SDS011;9680;52.520;13.332;2023-09-19T06:14:07;6.60;;;1.33;;
19095;SDS011;9680;52.520;13.332;2023-09-19T06:16:35;7.00;;;1.70;;
19095;SDS011;9680;52.520;13.332;2023-09-19T06:19:03;4.03;;;1.50;;
19095;SDS011;9680;52.520;13.332;2023-09-19T06:21:33;4.95;;;1.65;;
19095;SDS011;9680;52.520;13.332;2023-09-19T06:23:59;5.88;;;1.65;;
19095;SDS011;9680;52.520;13.332;2023-09-19T06:26:26;3.95;;;1.80;;
19095;SDS011;9680;52.520;13.332;2023-09-19T06:28:54;5.60;;;1.80;;
19095;SDS011;9680;52.520;13.332;2023-09-19T06:31:21;3.55;;;1.67;;
19095;SDS011;9680;52.520;13.332;2023-09-19T06:33:52;3.00;;;1.70;;
19095;SDS011;9680;52.520;13.332;2023-09-19T06:36:25;3.88;;;1.58;;
19095;SDS011;9680;52.520;13.332;2023-09-19T06:38:56;4.40;;;1.75;;
19095;SDS011;9680;52.520;13.332;2023-09-19T06:41:26;3.63;;;1.50;;
19095;SDS011;9680;52.520;13.332;2023-09-19T06:43:53;4.47;;;1.55;;
19095;SDS011;9680;52.520;13.332;2023-09-19T06:46:20;6.05;;;1.90;;
19095;SDS011;9680;52.520;13.332;2023-09-19T06:48:50;3.95;;;1.60;;
19095;SDS011;9680;52.520;13.332;2023-09-19T06:51:21;6.65;;;2.00;;
19095;SDS011;9680;52.520;13.332;2023-09-19T06:53:49;6.80;;;1.90;;
19095;SDS011;9680;52.520;13.332;2023-09-19T06:56:21;5.30;;;1.80;;
19095;SDS011;9680;52.520;13.332;2023-09-19T06:58:50;6.93;;;2.10;;
19095;SDS011;9680;52.520;13.332;2023-09-19T07:01:16;3.58;;;2.00;;
19095;SDS011;9680;52.520;13.332;2023-09-19T07:03:43;5.90;;;2.08;;
19095;SDS011;9680;52.520;13.332;2023-09-19T07:06:11;3.85;;;1.60;;
19095;SDS011;9680;52.520;13.332;2023-09-19T07:08:38;2.70;;;1.55;;
19095;SDS011;9680;52.520;13.332;2023-09-19T07:11:05;5.82;;;1.90;;
19095;SDS011;9680;52.520;13.332;2023-09-19T07:13:33;3.30;;;1.70;;
19095;SDS011;9680;52.520;13.332;2023-09-19T07:16:00;4.45;;;1.80;;
19095;SDS011;9680;52.520;13.332;2023-09-19T07:18:27;6.40;;;1.92;;
19095;SDS011;9680;52.520;13.332;2023-09-19T07:20:56;4.40;;;1.80;;
19095;SDS011;9680;52.520;13.332;2023-09-19T07:23:26;4.28;;;1.90;;
19095;SDS011;9680;52.520;13.332;2023-09-19T07:25:56;5.28;;;1.80;;
19095;SDS011;9680;52.520;13.332;2023-09-19T07:28:24;5.18;;;2.00;;
19095;SDS011;9680;52.520;13.332;2023-09-19T07:30:52;6.68;;;1.60;;
19095;SDS011;9680;52.520;13.332;2023-09-19T07:33:19;6.47;;;1.65;;
19095;SDS011;9680;52.520;13.332;2023-09-19T07:35:46;4.82;;;2.00;;
19095;SDS011;9680;52.520;13.332;2023-09-19T07:38:13;4.72;;;1.88;;
19095;SDS011;9680;52.520;13.332;2023-09-19T07:40:40;6.00;;;2.10;;
19095;SDS011;9680;52.520;13.332;2023-09-19T07:43:07;7.63;;;2.40;;
19095;SDS011;9680;52.520;13.332;2023-09-19T07:45:33;4.78;;;2.33;;
19095;SDS011;9680;52.520;13.332;2023-09-19T07:48:03;5.80;;;2.58;;
19095;SDS011;9680;52.520;13.332;2023-09-19T07:50:32;5.65;;;2.70;;
19095;SDS011;9680;52.520;13.332;2023-09-19T07:53:02;8.40;;;2.30;;
19095;SDS011;9680;52.520;13.332;2023-09-19T07:55:30;7.82;;;2.60;;
19095;SDS011;9680;52.520;13.332;2023-09-19T07:57:58;6.72;;;2.33;;
19095;SDS011;9680;52.520;13.332;2023-09-19T08:00:25;7.13;;;2.85;;
19095;SDS011;9680;52.520;13.332;2023-09-19T08:02:52;6.25;;;2.33;;
19095;SDS011;9680;52.520;13.332;2023-09-19T08:05:20;7.43;;;2.80;;
19095;SDS011;9680;52.520;13.332;2023-09-19T08:07:48;4.85;;;2.47;;
19095;SDS011;9680;52.520;13.332;2023-09-19T08:10:15;4.35;;;1.88;;
19095;SDS011;9680;52.520;13.332;2023-09-19T08:12:45;5.20;;;2.28;;
19095;SDS011;9680;52.520;13.332;2023-09-19T08:15:13;5.53;;;2.30;;
19095;SDS011;9680;52.520;13.332;2023-09-19T08:17:41;3.20;;;1.90;;
19095;SDS011;9680;52.520;13.332;2023-09-19T08:20:08;13.27;;;2.90;;
19095;SDS011;9680;52.520;13.332;2023-09-19T08:22:43;4.72;;;2.05;;
19095;SDS011;9680;52.520;13.332;2023-09-19T08:25:14;5.35;;;2.20;;
19095;SDS011;9680;52.520;13.332;2023-09-19T08:27:42;4.53;;;2.17;;
19095;SDS011;9680;52.520;13.332;2023-09-19T08:30:13;4.60;;;2.08;;
19095;SDS011;9680;52.520;13.332;2023-09-19T08:32:40;5.43;;;2.28;;
19095;SDS011;9680;52.520;13.332;2023-09-19T08:35:07;5.47;;;2.50;;
19095;SDS011;9680;52.520;13.332;2023-09-19T08:37:35;7.35;;;2.47;;
19095;SDS011;9680;52.520;13.332;2023-09-19T08:40:04;4.80;;;2.35;;
19095;SDS011;9680;52.520;13.332;2023-09-19T08:42:46;5.80;;;2.80;;
19095;SDS011;9680;52.520;13.332;2023-09-19T08:45:14;6.22;;;2.28;;
19095;SDS011;9680;52.520;13.332;2023-09-19T08:47:42;7.45;;;2.65;;
19095;SDS011;9680;52.520;13.332;2023-09-19T08:50:14;7.80;;;2.70;;
19095;SDS011;9680;52.520;13.332;2023-09-19T08:52:46;6.10;;;2.42;;
19095;SDS011;9680;52.520;13.332;2023-09-19T08:55:17;7.88;;;2.20;;
19095;SDS011;9680;52.520;13.332;2023-09-19T08:57:48;5.60;;;2.40;;
19095;SDS011;9680;52.520;13.332;2023-09-19T09:00:16;4.68;;;2.35;;
19095;SDS011;9680;52.520;13.332;2023-09-19T09:02:45;8.15;;;2.90;;
19095;SDS011;9680;52.520;13.332;2023-09-19T09:05:13;6.97;;;2.45;;
19095;SDS011;9680;52.520;13.332;2023-09-19T09:07:41;5.80;;;2.42;;
19095;SDS011;9680;52.520;13.332;2023-09-19T09:10:09;4.22;;;2.33;;
19095;SDS011;9680;52.520;13.332;2023-09-19T09:12:38;7.45;;;2.58;;
19095;SDS011;9680;52.520;13.332;2023-09-19T09:15:06;7.13;;;2.70;;
19095;SDS011;9680;52.520;13.332;2023-09-19T09:17:36;7.40;;;2.30;;
19095;SDS011;9680;52.520;13.332;2023-09-19T09:20:03;8.20;;;2.55;;
19095;SDS011;9680;52.520;13.332;2023-09-19T09:22:33;7.20;;;2.38;;
19095;SDS011;9680;52.520;13.332;2023-09-19T09:25:01;6.80;;;2.50;;
19095;SDS011;9680;52.520;13.332;2023-09-19T09:27:32;5.93;;;2.50;;
19095;SDS011;9680;52.520;13.332;2023-09-19T09:30:01;7.53;;;2.67;;
19095;SDS011;9680;52.520;13.332;2023-09-19T09:32:29;7.63;;;2.38;;
19095;SDS011;9680;52.520;13.332;2023-09-19T09:34:59;9.90;;;2.70;;
19095;SDS011;9680;52.520;13.332;2023-09-19T09:37:27;10.15;;;2.65;;
19095;SDS011;9680;52.520;13.332;2023-09-19T09:39:55;5.50;;;2.55;;
19095;SDS011;9680;52.520;13.332;2023-09-19T09:42:43;8.70;;;2.72;;
19095;SDS011;9680;52.520;13.332;2023-09-19T09:45:13;11.25;;;2.88;;
19095;SDS011;9680;52.520;13.332;2023-09-19T09:47:42;5.63;;;2.38;;
19095;SDS011;9680;52.520;13.332;2023-09-19T09:50:25;7.43;;;2.40;;
19095;SDS011;9680;52.520;13.332;2023-09-19T09:52:55;6.53;;;2.80;;
19095;SDS011;9680;52.520;13.332;2023-09-19T09:55:35;7.32;;;2.38;;
19095;SDS011;9680;52.520;13.332;2023-09-19T09:58:25;6.50;;;2.50;;
19095;SDS011;9680;52.520;13.332;2023-09-19T10:00:56;11.48;;;2.35;;
19095;SDS011;9680;52.520;13.332;2023-09-19T10:03:31;6.57;;;2.30;;
19095;SDS011;9680;52.520;13.332;2023-09-19T10:06:04;4.18;;;2.25;;
19095;SDS011;9680;52.520;13.332;2023-09-19T10:09:03;6.70;;;2.50;;
19095;SDS011;9680;52.520;13.332;2023-09-19T10:11:40;9.10;;;2.60;;
19095;SDS011;9680;52.520;13.332;2023-09-19T10:14:11;6.38;;;2.30;;
19095;SDS011;9680;52.520;13.332;2023-09-19T10:16:45;6.25;;;2.50;;
19095;SDS011;9680;52.520;13.332;2023-09-19T10:19:15;4.88;;;2.10;;
19095;SDS011;9680;52.520;13.332;2023-09-19T10:21:44;10.02;;;2.20;;
19095;SDS011;9680;52.520;13.332;2023-09-19T10:24:11;7.57;;;2.20;;
19095;SDS011;9680;52.520;13.332;2023-09-19T10:26:41;4.82;;;2.30;;
19095;SDS011;9680;52.520;13.332;2023-09-19T10:29:10;5.43;;;2.05;;
19095;SDS011;9680;52.520;13.332;2023-09-19T10:31:41;4.35;;;2.30;;
19095;SDS011;9680;52.520;13.332;2023-09-19T10:34:12;15.23;;;2.33;;
19095;SDS011;9680;52.520;13.332;2023-09-19T10:36:42;6.53;;;2.38;;
19095;SDS011;9680;52.520;13.332;2023-09-19T10:39:12;6.80;;;4.38;;
19095;SDS011;9680;52.520;13.332;2023-09-19T10:41:43;5.97;;;2.03;;
19095;SDS011;9680;52.520;13.332;2023-09-19T10:44:19;5.85;;;2.00;;
19095;SDS011;9680;52.520;13.332;2023-09-19T10:46:52;4.32;;;2.15;;
19095;SDS011;9680;52.520;13.332;2023-09-19T10:49:19;7.57;;;1.98;;
19095;SDS011;9680;52.520;13.332;2023-09-19T10:51:47;4.43;;;2.20;;
19095;SDS011;9680;52.520;13.332;2023-09-19T10:54:17;6.63;;;2.65;;
19095;SDS011;9680;52.520;13.332;2023-09-19T10:56:46;6.32;;;2.15;;
19095;SDS011;9680;52.520;13.332;2023-09-19T10:59:16;4.28;;;1.83;;
19095;SDS011;9680;52.520;13.332;2023-09-19T11:01:45;9.43;;;2.20;;
19095;SDS011;9680;52.520;13.332;2023-09-19T11:04:30;6.63;;;2.05;;
19095;SDS011;9680;52.520;13.332;2023-09-19T11:07:00;7.70;;;2.05;;
19095;SDS011;9680;52.520;13.332;2023-09-19T11:09:43;4.15;;;2.00;;
19095;SDS011;9680;52.520;13.332;2023-09-19T11:27:11;5.93;;;1.98;;
19095;SDS011;9680;52.520;13.332;2023-09-19T11:29:40;3.67;;;1.60;;
19095;SDS011;9680;52.520;13.332;2023-09-19T11:32:07;11.80;;;1.80;;
19095;SDS011;9680;52.520;13.332;2023-09-19T11:40:28;8.05;;;1.85;;
19095;SDS011;9680;52.520;13.332;2023-09-19T11:42:55;3.83;;;1.48;;
19095;SDS011;9680;52.520;13.332;2023-09-19T11:48:27;7.85;;;1.73;;
19095;SDS011;9680;52.520;13.332;2023-09-19T11:50:55;5.65;;;1.73;;
19095;SDS011;9680;52.520;13.332;2023-09-19T11:53:25;4.57;;;1.70;;
19095;SDS011;9680;52.520;13.332;2023-09-19T11:56:01;5.72;;;1.55;;
19095;SDS011;9680;52.520;13.332;2023-09-19T11:58:28;7.65;;;1.60;;
19095;SDS011;9680;52.520;13.332;2023-09-19T12:00:56;6.05;;;2.10;;
19095;SDS011;9680;52.520;13.332;2023-09-19T12:03:29;4.53;;;1.55;;
19095;SDS011;9680;52.520;13.332;2023-09-19T12:05:58;12.25;;;2.00;;
19095;SDS011;9680;52.520;13.332;2023-09-19T12:08:29;4.68;;;1.52;;
19095;SDS011;9680;52.520;13.332;2023-09-19T12:10:56;7.60;;;1.65;;
19095;SDS011;9680;52.520;13.332;2023-09-19T12:13:24;4.35;;;1.60;;
19095;SDS011;9680;52.520;13.332;2023-09-19T12:15:51;4.57;;;1.27;;
19095;SDS011;9680;52.520;13.332;2023-09-19T12:18:27;5.03;;;1.63;;
19095;SDS011;9680;52.520;13.332;2023-09-19T12:20:54;4.47;;;1.33;;
19095;SDS011;9680;52.520;13.332;2023-09-19T12:23:23;6.70;;;1.35;;
19095;SDS011;9680;52.520;13.332;2023-09-19T12:25:52;4.70;;;1.52;;
19095;SDS011;9680;52.520;13.332;2023-09-19T12:28:24;3.03;;;1.38;;
19095;SDS011;9680;52.520;13.332;2023-09-19T12:30:55;4.78;;;1.30;;
19095;SDS011;9680;52.520;13.332;2023-09-19T12:33:23;6.10;;;1.50;;
19095;SDS011;9680;52.520;13.332;2023-09-19T12:35:51;6.25;;;1.65;;
19095;SDS011;9680;52.520;13.332;2023-09-19T12:38:24;5.25;;;1.65;;
19095;SDS011;9680;52.520;13.332;2023-09-19T12:40:54;4.30;;;1.42;;
19095;SDS011;9680;52.520;13.332;2023-09-19T12:43:25;5.35;;;1.30;;
19095;SDS011;9680;52.520;13.332;2023-09-19T12:45:52;7.38;;;1.60;;
19095;SDS011;9680;52.520;13.332;2023-09-19T12:48:20;7.38;;;1.25;;
19095;SDS011;9680;52.520;13.332;2023-09-19T12:51:01;3.80;;;1.13;;
19095;SDS011;9680;52.520;13.332;2023-09-19T12:53:31;5.13;;;1.23;;
19095;SDS011;9680;52.520;13.332;2023-09-19T12:56:02;2.90;;;1.05;;
19095;SDS011;9680;52.520;13.332;2023-09-19T12:58:31;4.40;;;1.30;;
19095;SDS011;9680;52.520;13.332;2023-09-19T13:01:00;4.55;;;1.10;;
19095;SDS011;9680;52.520;13.332;2023-09-19T13:03:28;5.40;;;1.42;;
19095;SDS011;9680;52.520;13.332;2023-09-19T13:05:57;5.00;;;1.40;;
19095;SDS011;9680;52.520;13.332;2023-09-19T13:08:27;5.32;;;1.50;;
19095;SDS011;9680;52.520;13.332;2023-09-19T13:11:10;2.33;;;1.10;;
19095;SDS011;9680;52.520;13.332;2023-09-19T13:13:39;3.47;;;1.60;;
19095;SDS011;9680;52.520;13.332;2023-09-19T13:16:09;4.88;;;1.40;;
19095;SDS011;9680;52.520;13.332;2023-09-19T13:18:43;8.43;;;1.60;;
19095;SDS011;9680;52.520;13.332;2023-09-19T13:21:11;2.88;;;1.20;;
19095;SDS011;9680;52.520;13.332;2023-09-19T13:23:47;4.25;;;1.30;;
19095;SDS011;9680;52.520;13.332;2023-09-19T13:26:17;5.35;;;1.30;;
19095;SDS011;9680;52.520;13.332;2023-09-19T13:28:43;3.47;;;1.30;;
19095;SDS011;9680;52.520;13.332;2023-09-19T13:31:13;3.80;;;1.10;;
19095;SDS011;9680;52.520;13.332;2023-09-19T13:33:42;3.13;;;1.17;;
19095;SDS011;9680;52.520;13.332;2023-09-19T13:36:10;5.95;;;1.30;;
19095;SDS011;9680;52.520;13.332;2023-09-19T13:38:38;5.05;;;1.38;;
19095;SDS011;9680;52.520;13.332;2023-09-19T13:41:05;3.78;;;1.25;;
19095;SDS011;9680;52.520;13.332;2023-09-19T13:43:33;4.93;;;1.33;;
19095;SDS011;9680;52.520;13.332;2023-09-19T13:46:00;4.35;;;1.20;;
19095;SDS011;9680;52.520;13.332;2023-09-19T13:48:27;4.20;;;1.20;;
19095;SDS011;9680;52.520;13.332;2023-09-19T13:50:55;4.53;;;1.25;;
19095;SDS011;9680;52.520;13.332;2023-09-19T13:53:22;7.28;;;1.13;;
19095;SDS011;9680;52.520;13.332;2023-09-19T13:55:48;3.53;;;1.20;;
19095;SDS011;9680;52.520;13.332;2023-09-19T13:58:16;2.95;;;1.27;;
19095;SDS011;9680;52.520;13.332;2023-09-19T14:00:44;4.25;;;1.30;;
19095;SDS011;9680;52.520;13.332;2023-09-19T14:03:11;2.65;;;1.42;;
19095;SDS011;9680;52.520;13.332;2023-09-19T14:05:37;4.78;;;1.50;;
19095;SDS011;9680;52.520;13.332;2023-09-19T14:08:04;4.18;;;1.40;;
19095;SDS011;9680;52.520;13.332;2023-09-19T14:10:31;5.22;;;1.30;;
19095;SDS011;9680;52.520;13.332;2023-09-19T14:12:59;3.50;;;1.17;;
19095;SDS011;9680;52.520;13.332;2023-09-19T14:15:26;6.28;;;1.23;;
19095;SDS011;9680;52.520;13.332;2023-09-19T14:17:57;3.42;;;1.65;;
19095;SDS011;9680;52.520;13.332;2023-09-19T14:20:25;4.85;;;1.38;;
19095;SDS011;9680;52.520;13.332;2023-09-19T14:22:53;4.60;;;1.50;;
19095;SDS011;9680;52.520;13.332;2023-09-19T14:25:20;3.80;;;1.27;;
19095;SDS011;9680;52.520;13.332;2023-09-19T14:27:47;5.05;;;1.35;;
19095;SDS011;9680;52.520;13.332;2023-09-19T14:30:14;3.05;;;1.20;;
19095;SDS011;9680;52.520;13.332;2023-09-19T14:32:41;4.38;;;1.40;;
19095;SDS011;9680;52.520;13.332;2023-09-19T14:35:09;3.60;;;1.30;;
19095;SDS011;9680;52.520;13.332;2023-09-19T14:37:36;4.75;;;1.40;;
19095;SDS011;9680;52.520;13.332;2023-09-19T14:40:05;4.88;;;1.33;;
19095;SDS011;9680;52.520;13.332;2023-09-19T14:42:34;3.70;;;1.30;;
19095;SDS011;9680;52.520;13.332;2023-09-19T14:45:04;5.18;;;1.35;;
19095;SDS011;9680;52.520;13.332;2023-09-19T14:47:32;2.13;;;1.20;;
19095;SDS011;9680;52.520;13.332;2023-09-19T14:50:00;5.25;;;1.30;;
19095;SDS011;9680;52.520;13.332;2023-09-19T14:52:28;4.97;;;1.73;;
19095;SDS011;9680;52.520;13.332;2023-09-19T14:54:55;9.40;;;1.60;;
19095;SDS011;9680;52.520;13.332;2023-09-19T14:57:22;6.75;;;1.60;;
19095;SDS011;9680;52.520;13.332;2023-09-19T14:59:49;5.72;;;1.52;;
19095;SDS011;9680;52.520;13.332;2023-09-19T15:02:17;3.53;;;1.52;;
19095;SDS011;9680;52.520;13.332;2023-09-19T15:04:44;3.00;;;1.38;;
19095;SDS011;9680;52.520;13.332;2023-09-19T15:07:12;5.03;;;1.42;;
19095;SDS011;9680;52.520;13.332;2023-09-19T15:09:41;6.63;;;1.60;;
19095;SDS011;9680;52.520;13.332;2023-09-19T15:12:08;4.65;;;1.70;;
19095;SDS011;9680;52.520;13.332;2023-09-19T15:14:39;3.65;;;1.40;;
19095;SDS011;9680;52.520;13.332;2023-09-19T15:17:07;3.28;;;1.60;;
19095;SDS011;9680;52.520;13.332;2023-09-19T15:19:34;4.18;;;1.42;;
19095;SDS011;9680;52.520;13.332;2023-09-19T15:22:00;3.60;;;1.65;;
19095;SDS011;9680;52.520;13.332;2023-09-19T15:24:27;10.30;;;1.35;;
19095;SDS011;9680;52.520;13.332;2023-09-19T15:26:56;3.53;;;1.48;;
19095;SDS011;9680;52.520;13.332;2023-09-19T15:29:22;7.13;;;2.10;;
19095;SDS011;9680;52.520;13.332;2023-09-19T15:31:49;4.45;;;1.77;;